Time;durP1;ratioP1;P1;durP2;ratioP2;P2;SDS_P1;SDS_P2;PMS_P1;PMS_P2;Temp;Humidity;BMP_temperature;BMP_pressure;BME280_temperature;BME280_humidity;BME280_pressure;Samples;Min_cycle;Max_cycle;Signal;HPM_P1;HPM_P2
2021/03/29 00:02:07;;;;;;;10.32;2.63;;;;;;;;;;5057806;28;20024;-58
2021/03/29 00:04:35;;;;;;;13.70;3.22;;;;;;;;;;5061609;28;20788;-59
2021/03/29 00:07:01;;;;;;;9.32;3.15;;;;;;;;;;5042107;28;20381;-59
2021/03/29 00:09:28;;;;;;;11.00;2.35;;;;;;;;;;5058058;28;20029;-60
2021/03/29 00:11:54;;;;;;;11.60;2.63;;;;;;;;;;5062985;28;20047;-59
2021/03/29 00:14:21;;;;;;;16.92;3.20;;;;;;;;;;5057852;28;20049;-58
2021/03/29 00:16:47;;;;;;;15.70;2.55;;;;;;;;;;5054707;28;20787;-59
2021/03/29 00:19:13;;;;;;;17.17;2.45;;;;;;;;;;5061570;28;20037;-59
2021/03/29 00:21:39;;;;;;;7.85;2.80;;;;;;;;;;5059061;28;20036;-59
2021/03/29 00:24:05;;;;;;;5.68;2.78;;;;;;;;;;5054406;28;20629;-61
2021/03/29 00:26:35;;;;;;;13.77;2.50;;;;;;;;;;5057720;28;20124;-59
2021/03/29 00:29:00;;;;;;;9.50;2.08;;;;;;;;;;5055116;28;20044;-59
2021/03/29 00:31:29;;;;;;;10.20;2.53;;;;;;;;;;5057234;28;20120;-60
2021/03/29 00:33:54;;;;;;;15.55;2.85;;;;;;;;;;5061621;28;20032;-59
2021/03/29 00:36:23;;;;;;;9.63;2.70;;;;;;;;;;5073599;28;20046;-58
2021/03/29 00:38:49;;;;;;;19.00;3.00;;;;;;;;;;5057665;28;20049;-60
2021/03/29 00:41:16;;;;;;;8.15;2.80;;;;;;;;;;5054776;28;20029;-60
2021/03/29 00:43:44;;;;;;;7.25;2.60;;;;;;;;;;5061934;28;20087;-60
2021/03/29 00:46:14;;;;;;;18.77;3.15;;;;;;;;;;5057218;28;20021;-60
2021/03/29 00:48:44;;;;;;;12.85;2.40;;;;;;;;;;5056042;28;20032;-60
2021/03/29 00:51:11;;;;;;;6.50;2.45;;;;;;;;;;5057824;28;20083;-59
2021/03/29 00:53:40;;;;;;;10.55;2.55;;;;;;;;;;5072117;28;21011;-59
2021/03/29 00:56:06;;;;;;;10.80;2.90;;;;;;;;;;5054071;28;20036;-59
2021/03/29 00:58:32;;;;;;;10.13;2.38;;;;;;;;;;5055742;28;20054;-60
2021/03/29 01:01:03;;;;;;;12.10;2.80;;;;;;;;;;5053501;28;20032;-59
2021/03/29 01:03:32;;;;;;;9.50;2.50;;;;;;;;;;5056170;28;20094;-59
2021/03/29 01:06:00;;;;;;;15.65;2.63;;;;;;;;;;5057912;28;20081;-60
2021/03/29 01:08:32;;;;;;;10.02;2.42;;;;;;;;;;5054744;28;20505;-60
2021/03/29 01:10:59;;;;;;;23.00;2.65;;;;;;;;;;5056837;28;20047;-59
2021/03/29 01:13:25;;;;;;;5.70;2.25;;;;;;;;;;5053817;28;20037;-60
2021/03/29 01:15:52;;;;;;;9.07;2.63;;;;;;;;;;5057525;28;20039;-59
2021/03/29 01:18:19;;;;;;;11.18;2.95;;;;;;;;;;5055586;28;20089;-59
2021/03/29 01:21:04;;;;;;;12.85;2.88;;;;;;;;;;5058261;28;20039;-59
2021/03/29 01:23:32;;;;;;;13.52;4.10;;;;;;;;;;5035363;28;20040;-59
2021/03/29 01:26:06;;;;;;;9.48;2.75;;;;;;;;;;5057869;28;20680;-60
2021/03/29 01:28:31;;;;;;;10.98;3.22;;;;;;;;;;5059900;28;20037;-58
2021/03/29 01:30:57;;;;;;;6.95;2.50;;;;;;;;;;5046969;28;20035;-58
2021/03/29 01:33:26;;;;;;;9.02;2.65;;;;;;;;;;5059187;28;20032;-58
2021/03/29 01:35:54;;;;;;;14.52;2.50;;;;;;;;;;5046731;28;20036;-59
2021/03/29 01:38:20;;;;;;;14.60;2.65;;;;;;;;;;5062708;28;20051;-58
2021/03/29 01:40:48;;;;;;;10.38;2.50;;;;;;;;;;5076485;28;20613;-58
2021/03/29 01:43:16;;;;;;;7.13;2.33;;;;;;;;;;5061635;28;20060;-58
2021/03/29 01:45:45;;;;;;;12.90;2.72;;;;;;;;;;5061089;28;20028;-59
2021/03/29 01:48:11;;;;;;;12.98;2.75;;;;;;;;;;5059617;28;20116;-58
2021/03/29 01:50:42;;;;;;;10.68;3.03;;;;;;;;;;5059230;28;20155;-59
2021/03/29 01:53:09;;;;;;;5.68;2.25;;;;;;;;;;5061064;28;20028;-60
2021/03/29 01:55:35;;;;;;;7.68;2.95;;;;;;;;;;5060948;28;20115;-59
2021/03/29 01:58:06;;;;;;;11.15;3.40;;;;;;;;;;5043997;28;20738;-60
2021/03/29 02:00:40;;;;;;;7.13;2.75;;;;;;;;;;5060341;28;20025;-60
2021/03/29 02:03:10;;;;;;;12.68;3.15;;;;;;;;;;5058370;28;20115;-59
2021/03/29 02:05:38;;;;;;;11.80;2.47;;;;;;;;;;5044599;28;20122;-61
2021/03/29 02:08:09;;;;;;;7.18;2.33;;;;;;;;;;5059334;28;21099;-59
2021/03/29 02:10:35;;;;;;;9.50;2.35;;;;;;;;;;5058343;28;20127;-59
2021/03/29 02:13:04;;;;;;;17.85;3.00;;;;;;;;;;5059295;28;21070;-59
2021/03/29 02:15:32;;;;;;;8.32;2.50;;;;;;;;;;5060932;28;20047;-59
2021/03/29 02:17:59;;;;;;;3.92;2.65;;;;;;;;;;5042448;28;20055;-59
2021/03/29 02:20:29;;;;;;;8.40;2.55;;;;;;;;;;5055606;28;20627;-61
2021/03/29 02:22:59;;;;;;;9.80;2.63;;;;;;;;;;5058306;28;20089;-59
2021/03/29 02:25:29;;;;;;;9.10;3.20;;;;;;;;;;5061118;28;20033;-59
2021/03/29 02:27:54;;;;;;;7.50;2.60;;;;;;;;;;5044428;28;20044;-59
2021/03/29 02:30:27;;;;;;;5.95;2.53;;;;;;;;;;5061727;28;20027;-58
2021/03/29 02:32:53;;;;;;;7.40;2.70;;;;;;;;;;5059674;28;21996;-58
2021/03/29 02:35:20;;;;;;;6.68;3.03;;;;;;;;;;5059763;28;20559;-60
2021/03/29 02:37:49;;;;;;;10.95;2.40;;;;;;;;;;5065663;28;20491;-58
2021/03/29 02:40:15;;;;;;;8.57;2.92;;;;;;;;;;5058565;28;20032;-60
2021/03/29 02:42:42;;;;;;;13.27;2.97;;;;;;;;;;5058044;28;21042;-59
2021/03/29 02:45:10;;;;;;;8.10;2.63;;;;;;;;;;5073907;28;20081;-59
2021/03/29 02:47:43;;;;;;;9.80;2.75;;;;;;;;;;5060164;28;20028;-58
2021/03/29 02:50:15;;;;;;;14.75;3.38;;;;;;;;;;5059244;28;20718;-59
2021/03/29 02:52:41;;;;;;;9.20;2.92;;;;;;;;;;5042485;28;20024;-58
2021/03/29 02:55:11;;;;;;;17.95;2.40;;;;;;;;;;5059392;28;20028;-60
2021/03/29 02:57:37;;;;;;;11.25;3.08;;;;;;;;;;5056302;28;20036;-60
2021/03/29 03:00:10;;;;;;;8.50;2.17;;;;;;;;;;5055497;28;20029;-60
2021/03/29 03:02:38;;;;;;;10.88;2.75;;;;;;;;;;5059852;28;20020;-59
2021/03/29 03:05:05;;;;;;;15.07;2.28;;;;;;;;;;5057172;28;20186;-60
2021/03/29 03:07:33;;;;;;;7.95;2.58;;;;;;;;;;5056600;28;20044;-58
2021/03/29 03:09:59;;;;;;;9.95;2.30;;;;;;;;;;5042867;28;20058;-58
2021/03/29 03:12:28;;;;;;;8.18;2.67;;;;;;;;;;5057919;28;20036;-58
2021/03/29 03:14:56;;;;;;;13.80;2.78;;;;;;;;;;5055351;28;20127;-58
2021/03/29 03:17:26;;;;;;;13.95;2.90;;;;;;;;;;5058407;28;20116;-60
2021/03/29 03:19:52;;;;;;;12.77;3.08;;;;;;;;;;5058746;28;20154;-60
2021/03/29 03:22:20;;;;;;;6.47;2.63;;;;;;;;;;5055632;28;20172;-59
2021/03/29 03:24:46;;;;;;;9.07;2.60;;;;;;;;;;5059960;28;20037;-59
2021/03/29 03:27:16;;;;;;;11.77;2.38;;;;;;;;;;5062785;28;20024;-64
2021/03/29 03:29:45;;;;;;;11.75;2.50;;;;;;;;;;5056875;28;20119;-59
2021/03/29 03:32:16;;;;;;;12.88;2.70;;;;;;;;;;5060838;28;20071;-59
2021/03/29 03:34:41;;;;;;;10.27;2.72;;;;;;;;;;5062114;28;20047;-59
2021/03/29 03:37:08;;;;;;;12.65;2.90;;;;;;;;;;5042596;28;20040;-59
2021/03/29 03:39:37;;;;;;;12.13;3.00;;;;;;;;;;5059978;28;20044;-59
2021/03/29 03:42:05;;;;;;;8.02;2.38;;;;;;;;;;5058052;28;20021;-63
2021/03/29 03:44:31;;;;;;;10.40;2.50;;;;;;;;;;5060040;28;20024;-62
2021/03/29 03:46:59;;;;;;;8.13;2.30;;;;;;;;;;5052739;28;20035;-59
2021/03/29 03:49:28;;;;;;;8.23;2.53;;;;;;;;;;5060666;28;20042;-58
2021/03/29 03:51:54;;;;;;;5.90;2.20;;;;;;;;;;5059543;28;20041;-60
2021/03/29 03:54:20;;;;;;;6.85;2.35;;;;;;;;;;5058296;28;20077;-60
2021/03/29 03:56:46;;;;;;;5.60;2.80;;;;;;;;;;5044159;28;20040;-60
2021/03/29 03:59:14;;;;;;;15.88;3.25;;;;;;;;;;5054563;28;20035;-60
2021/03/29 04:02:03;;;;;;;13.02;2.50;;;;;;;;;;5041613;28;20804;-60
2021/03/29 04:04:28;;;;;;;10.15;3.17;;;;;;;;;;5060321;28;20040;-59
2021/03/29 04:06:57;;;;;;;7.82;2.92;;;;;;;;;;5059033;28;20740;-61
2021/03/29 04:09:33;;;;;;;11.55;2.72;;;;;;;;;;5056074;28;20027;-60
2021/03/29 04:12:05;;;;;;;13.55;3.30;;;;;;;;;;5060197;28;20032;-60
2021/03/29 04:14:31;;;;;;;14.50;3.28;;;;;;;;;;5058179;28;20038;-60
2021/03/29 04:16:59;;;;;;;8.82;2.78;;;;;;;;;;5059074;28;20032;-59
2021/03/29 04:19:25;;;;;;;10.52;2.53;;;;;;;;;;5057880;28;20032;-60
2021/03/29 04:21:50;;;;;;;13.07;2.45;;;;;;;;;;5059397;28;20031;-60
2021/03/29 04:24:20;;;;;;;6.65;1.85;;;;;;;;;;5056451;28;20032;-60
2021/03/29 04:26:45;;;;;;;12.52;3.38;;;;;;;;;;5054147;28;20037;-60
2021/03/29 04:29:11;;;;;;;8.02;3.10;;;;;;;;;;5045825;28;20551;-61
2021/03/29 04:31:38;;;;;;;8.68;2.75;;;;;;;;;;5064380;28;20039;-61
2021/03/29 04:34:04;;;;;;;14.18;2.65;;;;;;;;;;5056520;28;20065;-59
2021/03/29 04:36:30;;;;;;;10.20;3.13;;;;;;;;;;5072527;28;20044;-62
2021/03/29 04:38:56;;;;;;;15.43;3.33;;;;;;;;;;5057570;28;22761;-62
2021/03/29 04:41:29;;;;;;;12.77;2.53;;;;;;;;;;5054553;28;20043;-59
2021/03/29 04:43:59;;;;;;;15.90;2.92;;;;;;;;;;5041285;28;20036;-60
2021/03/29 04:46:25;;;;;;;8.30;2.33;;;;;;;;;;5056806;28;20032;-61
2021/03/29 04:48:51;;;;;;;13.75;3.17;;;;;;;;;;5054561;28;20601;-61
2021/03/29 04:51:16;;;;;;;10.88;2.80;;;;;;;;;;5057751;28;20038;-60
2021/03/29 04:53:42;;;;;;;8.45;3.17;;;;;;;;;;5044676;28;20032;-61
2021/03/29 04:56:10;;;;;;;10.85;2.85;;;;;;;;;;5057471;28;20050;-60
2021/03/29 04:58:38;;;;;;;18.85;3.03;;;;;;;;;;5054592;28;20043;-59
2021/03/29 05:01:06;;;;;;;9.02;3.22;;;;;;;;;;5055984;28;20040;-61
2021/03/29 05:03:33;;;;;;;14.20;2.88;;;;;;;;;;5058042;28;20036;-61
2021/03/29 05:05:59;;;;;;;11.68;2.42;;;;;;;;;;5055430;28;20029;-60
2021/03/29 05:08:27;;;;;;;13.20;2.85;;;;;;;;;;5055365;28;20028;-60
2021/03/29 05:10:53;;;;;;;8.85;3.47;;;;;;;;;;5055960;28;20165;-63
2021/03/29 05:13:19;;;;;;;17.77;3.13;;;;;;;;;;5056232;28;20633;-61
2021/03/29 05:15:45;;;;;;;11.68;3.88;;;;;;;;;;5055651;28;20079;-60
2021/03/29 05:18:13;;;;;;;9.80;2.55;;;;;;;;;;5054099;28;20036;-61
2021/03/29 05:20:39;;;;;;;11.63;3.05;;;;;;;;;;5053837;28;20169;-61
2021/03/29 05:23:05;;;;;;;9.43;3.25;;;;;;;;;;5055213;28;20111;-60
2021/03/29 05:25:30;;;;;;;14.23;3.75;;;;;;;;;;5029260;28;20032;-61
2021/03/29 05:27:56;;;;;;;15.32;2.88;;;;;;;;;;5059637;28;20102;-60
2021/03/29 05:30:22;;;;;;;6.93;2.70;;;;;;;;;;5055747;28;20511;-62
2021/03/29 05:32:51;;;;;;;9.43;2.95;;;;;;;;;;5055030;28;20048;-61
2021/03/29 05:35:17;;;;;;;17.00;3.10;;;;;;;;;;5056873;28;20151;-60
2021/03/29 05:37:42;;;;;;;11.32;2.85;;;;;;;;;;5042221;28;20044;-61
2021/03/29 05:40:10;;;;;;;15.93;3.83;;;;;;;;;;5058757;28;20128;-60
2021/03/29 05:42:36;;;;;;;13.80;3.53;;;;;;;;;;5055616;28;20058;-60
2021/03/29 05:45:04;;;;;;;11.63;3.17;;;;;;;;;;5055514;28;20479;-60
2021/03/29 05:47:30;;;;;;;8.77;2.10;;;;;;;;;;5041119;28;20130;-62
2021/03/29 05:49:59;;;;;;;8.10;2.13;;;;;;;;;;5059731;28;20119;-60
2021/03/29 05:52:45;;;;;;;9.13;2.53;;;;;;;;;;5053692;28;20059;-60
2021/03/29 05:55:16;;;;;;;10.57;2.45;;;;;;;;;;5054820;28;20040;-61
2021/03/29 06:00:31;;;;;;;11.10;2.55;;;;;;;;;;5026982;28;20626;-61
2021/03/29 06:03:16;;;;;;;18.00;3.22;;;;;;;;;;5059429;28;20143;-61
2021/03/29 06:05:41;;;;;;;13.10;2.45;;;;;;;;;;5071489;28;20037;-59
2021/03/29 06:08:15;;;;;;;9.68;2.50;;;;;;;;;;5058831;28;20037;-60
2021/03/29 06:10:41;;;;;;;8.73;2.15;;;;;;;;;;5061208;28;20063;-60
2021/03/29 06:13:17;;;;;;;8.65;2.53;;;;;;;;;;5059061;28;20070;-60
2021/03/29 06:15:45;;;;;;;8.02;2.40;;;;;;;;;;5058153;28;20035;-61
2021/03/29 06:18:12;;;;;;;8.75;1.95;;;;;;;;;;5062719;28;20040;-60
2021/03/29 06:20:59;;;;;;;10.50;2.28;;;;;;;;;;5043597;28;20024;-60
2021/03/29 06:23:26;;;;;;;10.02;2.17;;;;;;;;;;5059152;28;20498;-61
2021/03/29 06:26:14;;;;;;;15.85;2.15;;;;;;;;;;5057258;28;20033;-61
2021/03/29 06:28:39;;;;;;;7.97;1.70;;;;;;;;;;5059556;28;20043;-61
2021/03/29 06:31:18;;;;;;;7.72;2.30;;;;;;;;;;5045027;28;20040;-61
2021/03/29 06:33:50;;;;;;;8.43;1.63;;;;;;;;;;5058658;28;20442;-60
2021/03/29 06:36:28;;;;;;;7.75;2.10;;;;;;;;;;5058527;28;20121;-61
2021/03/29 06:39:09;;;;;;;7.82;1.80;;;;;;;;;;5054882;28;20052;-61
2021/03/29 06:41:37;;;;;;;3.80;1.13;;;;;;;;;;5059417;28;20115;-60
2021/03/29 06:44:08;;;;;;;7.53;1.63;;;;;;;;;;5056384;28;20035;-60
2021/03/29 06:46:34;;;;;;;10.88;2.20;;;;;;;;;;5062034;28;20047;-62
2021/03/29 06:49:02;;;;;;;11.45;2.25;;;;;;;;;;5041862;28;20031;-63
2021/03/29 06:51:34;;;;;;;15.10;2.65;;;;;;;;;;5059794;28;20025;-61
2021/03/29 06:54:04;;;;;;;17.33;3.05;;;;;;;;;;5039253;28;20105;-61
2021/03/29 06:56:31;;;;;;;10.23;2.00;;;;;;;;;;5058214;28;20972;-60
2021/03/29 06:59:06;;;;;;;4.50;1.58;;;;;;;;;;5057903;28;20024;-61
2021/03/29 07:01:36;;;;;;;7.03;1.73;;;;;;;;;;5059720;28;20064;-61
2021/03/29 07:04:24;;;;;;;15.57;3.10;;;;;;;;;;5037583;28;20130;-60
2021/03/29 07:06:53;;;;;;;11.77;2.03;;;;;;;;;;5023880;28;20048;-62
2021/03/29 07:09:21;;;;;;;9.77;1.38;;;;;;;;;;5024810;28;20080;-61
2021/03/29 07:11:47;;;;;;;12.68;2.20;;;;;;;;;;5007955;28;20050;-61
2021/03/29 07:14:17;;;;;;;10.55;2.33;;;;;;;;;;5008460;28;20044;-61
2021/03/29 07:16:49;;;;;;;13.73;2.30;;;;;;;;;;5024609;28;20048;-62
2021/03/29 07:19:17;;;;;;;11.13;2.17;;;;;;;;;;5039614;28;20055;-60
2021/03/29 07:21:46;;;;;;;12.82;2.55;;;;;;;;;;5006081;28;20032;-63
2021/03/29 07:24:17;;;;;;;10.63;2.20;;;;;;;;;;5039735;28;20033;-61
2021/03/29 07:26:45;;;;;;;10.18;2.00;;;;;;;;;;5039372;28;20041;-62
2021/03/29 07:29:18;;;;;;;13.43;1.95;;;;;;;;;;5024084;28;20065;-60
2021/03/29 07:31:51;;;;;;;10.40;1.80;;;;;;;;;;5040568;28;20559;-62
2021/03/29 07:34:17;;;;;;;9.68;1.98;;;;;;;;;;5040786;28;20779;-62
2021/03/29 07:36:45;;;;;;;13.13;2.58;;;;;;;;;;5046205;28;20614;-60
2021/03/29 07:39:12;;;;;;;15.48;2.75;;;;;;;;;;5041207;28;20052;-61
2021/03/29 07:41:38;;;;;;;10.10;2.83;;;;;;;;;;5060782;28;20020;-61
2021/03/29 07:44:10;;;;;;;12.45;2.20;;;;;;;;;;5059100;28;20108;-61
2021/03/29 07:46:40;;;;;;;18.73;3.05;;;;;;;;;;5043518;28;20028;-61
2021/03/29 07:49:26;;;;;;;9.02;2.90;;;;;;;;;;5057812;28;20041;-60
2021/03/29 07:52:18;;;;;;;12.40;2.55;;;;;;;;;;5056506;28;20025;-61
2021/03/29 07:54:50;;;;;;;12.45;2.42;;;;;;;;;;5055758;28;20467;-59
2021/03/29 07:57:36;;;;;;;8.80;2.47;;;;;;;;;;5055148;28;20122;-60
2021/03/29 08:00:01;;;;;;;16.67;2.20;;;;;;;;;;5059031;28;20031;-62
2021/03/29 08:02:33;;;;;;;9.88;2.58;;;;;;;;;;5051528;28;20078;-62
2021/03/29 08:05:02;;;;;;;18.33;2.80;;;;;;;;;;5052877;28;20431;-60
2021/03/29 08:07:36;;;;;;;12.23;2.60;;;;;;;;;;5041055;28;20167;-61
2021/03/29 08:10:03;;;;;;;8.18;2.45;;;;;;;;;;5055790;28;20031;-60
2021/03/29 08:12:28;;;;;;;11.80;2.08;;;;;;;;;;5055545;28;20104;-61
2021/03/29 08:14:57;;;;;;;10.77;2.85;;;;;;;;;;5055761;28;20673;-59
2021/03/29 08:17:41;;;;;;;12.88;2.70;;;;;;;;;;5056054;28;20042;-61
2021/03/29 08:20:20;;;;;;;10.77;2.05;;;;;;;;;;5040348;28;20028;-62
2021/03/29 08:23:06;;;;;;;7.20;1.90;;;;;;;;;;5054916;28;20028;-61
2021/03/29 08:25:31;;;;;;;15.80;2.40;;;;;;;;;;5055211;28;20433;-61
2021/03/29 08:27:59;;;;;;;12.95;2.03;;;;;;;;;;5056610;28;20553;-60
2021/03/29 08:30:26;;;;;;;10.02;2.90;;;;;;;;;;5055230;28;20484;-60
2021/03/29 08:33:08;;;;;;;12.27;2.40;;;;;;;;;;5055740;28;20032;-61
2021/03/29 08:35:37;;;;;;;12.93;2.58;;;;;;;;;;5057579;28;20750;-61
2021/03/29 08:38:08;;;;;;;8.55;2.30;;;;;;;;;;5045640;28;20059;-62
2021/03/29 08:40:34;;;;;;;17.02;2.40;;;;;;;;;;5058202;28;20797;-62
2021/03/29 08:43:04;;;;;;;12.88;3.08;;;;;;;;;;5052939;28;20039;-60
2021/03/29 08:45:30;;;;;;;8.73;1.90;;;;;;;;;;5060622;28;20036;-61
2021/03/29 08:47:58;;;;;;;11.63;2.88;;;;;;;;;;5054466;28;20044;-62
2021/03/29 08:50:27;;;;;;;11.82;2.70;;;;;;;;;;5056523;28;22074;-62
2021/03/29 08:52:58;;;;;;;11.57;3.00;;;;;;;;;;5055280;28;20116;-61
2021/03/29 08:55:27;;;;;;;15.43;2.97;;;;;;;;;;5041691;28;20036;-60
2021/03/29 08:57:57;;;;;;;10.43;2.67;;;;;;;;;;5051390;28;20034;-62
2021/03/29 09:00:25;;;;;;;13.40;2.90;;;;;;;;;;5061029;28;20169;-60
2021/03/29 09:02:54;;;;;;;13.80;3.35;;;;;;;;;;5052153;28;20020;-59
2021/03/29 09:05:23;;;;;;;13.52;2.38;;;;;;;;;;5052261;28;20044;-59
2021/03/29 09:07:52;;;;;;;14.30;2.53;;;;;;;;;;5054175;28;20021;-59
2021/03/29 09:10:22;;;;;;;22.95;3.10;;;;;;;;;;5039719;28;20127;-60
2021/03/29 09:12:52;;;;;;;14.65;2.53;;;;;;;;;;5060087;28;20036;-60
2021/03/29 09:15:18;;;;;;;13.57;2.80;;;;;;;;;;5053823;28;20115;-57
2021/03/29 09:17:53;;;;;;;13.90;3.15;;;;;;;;;;5059623;28;20032;-60
2021/03/29 09:20:20;;;;;;;14.90;2.78;;;;;;;;;;5057953;28;20024;-60
2021/03/29 09:22:46;;;;;;;19.50;3.13;;;;;;;;;;5056833;28;20145;-60
2021/03/29 09:25:15;;;;;;;12.95;3.25;;;;;;;;;;5043340;28;20810;-60
2021/03/29 09:27:45;;;;;;;18.67;3.10;;;;;;;;;;5056503;28;20482;-59
2021/03/29 09:30:14;;;;;;;15.60;3.95;;;;;;;;;;5053417;28;20031;-60
2021/03/29 09:32:43;;;;;;;16.88;3.03;;;;;;;;;;5053031;28;20039;-60
2021/03/29 09:35:09;;;;;;;12.07;3.35;;;;;;;;;;5051953;28;20098;-60
2021/03/29 09:37:34;;;;;;;10.75;2.83;;;;;;;;;;5053578;28;20037;-60
2021/03/29 09:40:05;;;;;;;8.80;2.90;;;;;;;;;;5038983;28;20044;-61
2021/03/29 09:42:34;;;;;;;10.40;3.10;;;;;;;;;;5056494;28;20043;-59
2021/03/29 09:44:59;;;;;;;17.75;2.85;;;;;;;;;;5044182;28;20483;-58
2021/03/29 09:47:29;;;;;;;11.98;2.70;;;;;;;;;;5056402;28;20055;-58
2021/03/29 09:49:57;;;;;;;14.57;2.50;;;;;;;;;;5057046;28;20531;-58
2021/03/29 09:52:42;;;;;;;9.18;2.25;;;;;;;;;;5058784;28;20038;-59
2021/03/29 09:55:09;;;;;;;14.85;3.20;;;;;;;;;;5060462;28;20025;-59
2021/03/29 09:57:43;;;;;;;18.17;3.45;;;;;;;;;;5056898;28;20032;-60
2021/03/29 10:00:16;;;;;;;14.32;3.30;;;;;;;;;;5058183;28;20482;-60
2021/03/29 10:02:41;;;;;;;8.68;2.85;;;;;;;;;;5058740;28;20943;-61
2021/03/29 10:05:08;;;;;;;22.45;2.92;;;;;;;;;;5061080;28;20042;-60
2021/03/29 10:07:34;;;;;;;16.00;2.70;;;;;;;;;;5053385;28;20078;-57
2021/03/29 10:10:02;;;;;;;13.68;3.03;;;;;;;;;;5064629;28;20032;-58
2021/03/29 10:12:29;;;;;;;14.13;2.45;;;;;;;;;;5056779;28;20032;-59
2021/03/29 10:15:09;;;;;;;14.70;3.08;;;;;;;;;;5059429;28;20033;-60
2021/03/29 10:17:35;;;;;;;14.80;3.50;;;;;;;;;;5060503;28;20063;-59
2021/03/29 10:20:08;;;;;;;10.38;3.15;;;;;;;;;;5058762;28;20058;-59
2021/03/29 10:22:34;;;;;;;15.57;3.05;;;;;;;;;;5058835;28;20217;-60
2021/03/29 10:25:09;;;;;;;12.60;3.13;;;;;;;;;;5058594;28;20107;-60
2021/03/29 10:27:44;;;;;;;16.08;3.08;;;;;;;;;;5056414;28;20092;-62
2021/03/29 10:30:11;;;;;;;14.60;3.22;;;;;;;;;;5047827;28;20036;-59
2021/03/29 10:32:36;;;;;;;14.18;3.30;;;;;;;;;;5045450;28;20028;-60
2021/03/29 10:35:02;;;;;;;8.80;2.75;;;;;;;;;;5055554;28;20043;-59
2021/03/29 10:37:29;;;;;;;8.52;3.25;;;;;;;;;;5057598;28;20040;-59
2021/03/29 10:39:55;;;;;;;11.77;3.10;;;;;;;;;;5059259;28;20032;-59
2021/03/29 10:42:23;;;;;;;18.98;4.45;;;;;;;;;;5059965;28;20024;-60
2021/03/29 10:44:54;;;;;;;19.48;3.72;;;;;;;;;;5059708;28;20024;-58
2021/03/29 10:47:20;;;;;;;16.67;3.20;;;;;;;;;;5062436;28;20029;-58
2021/03/29 10:49:46;;;;;;;16.60;3.20;;;;;;;;;;5056876;28;20048;-59
2021/03/29 10:52:11;;;;;;;15.68;4.03;;;;;;;;;;5074404;28;20112;-59
2021/03/29 10:54:37;;;;;;;21.42;3.60;;;;;;;;;;5057914;28;20468;-59
2021/03/29 10:57:06;;;;;;;13.30;3.92;;;;;;;;;;5056910;28;20078;-58
2021/03/29 10:59:36;;;;;;;17.88;3.83;;;;;;;;;;5042654;28;20039;-58
2021/03/29 11:02:02;;;;;;;15.70;3.35;;;;;;;;;;5061366;28;20028;-59
2021/03/29 11:04:32;;;;;;;14.93;3.92;;;;;;;;;;5022639;28;20141;-60
2021/03/29 11:06:58;;;;;;;15.35;3.83;;;;;;;;;;5038405;28;20174;-59
2021/03/29 11:09:26;;;;;;;16.25;3.92;;;;;;;;;;5039876;28;20077;-59
2021/03/29 11:11:53;;;;;;;12.77;3.83;;;;;;;;;;5061210;28;20062;-61
2021/03/29 11:14:20;;;;;;;18.40;4.20;;;;;;;;;;5042705;28;20032;-57
2021/03/29 11:16:47;;;;;;;11.30;3.85;;;;;;;;;;5061760;28;20036;-60
2021/03/29 11:19:15;;;;;;;16.05;4.15;;;;;;;;;;5060123;28;20039;-60
2021/03/29 11:21:40;;;;;;;18.77;3.85;;;;;;;;;;5061602;28;20031;-59
2021/03/29 11:24:06;;;;;;;15.13;4.57;;;;;;;;;;5040810;28;20036;-61
2021/03/29 11:26:32;;;;;;;14.30;3.97;;;;;;;;;;5058320;28;20051;-58
2021/03/29 11:28:58;;;;;;;13.30;3.58;;;;;;;;;;5043964;28;20131;-59
2021/03/29 11:31:24;;;;;;;21.05;4.63;;;;;;;;;;5057901;28;20057;-60
2021/03/29 11:33:53;;;;;;;12.05;3.53;;;;;;;;;;5057036;28;20032;-59
2021/03/29 11:36:18;;;;;;;16.00;3.47;;;;;;;;;;5055985;28;20507;-59
2021/03/29 11:38:44;;;;;;;15.55;3.95;;;;;;;;;;5055181;28;20049;-58
2021/03/29 11:41:10;;;;;;;9.90;3.50;;;;;;;;;;5045139;28;20040;-59
2021/03/29 11:43:36;;;;;;;15.48;4.10;;;;;;;;;;5056690;28;20059;-57
2021/03/29 11:46:01;;;;;;;15.20;3.97;;;;;;;;;;5057324;28;20090;-60
2021/03/29 11:48:27;;;;;;;13.13;3.33;;;;;;;;;;5042163;28;20043;-58
2021/03/29 11:50:58;;;;;;;15.18;3.65;;;;;;;;;;5056798;28;20165;-59
2021/03/29 11:53:26;;;;;;;11.25;3.50;;;;;;;;;;5056728;28;20036;-61
2021/03/29 11:55:54;;;;;;;11.45;3.47;;;;;;;;;;5056786;28;20035;-58
2021/03/29 11:58:20;;;;;;;15.05;3.97;;;;;;;;;;5058373;28;20040;-58
2021/03/29 12:05:56;;;;;;;12.60;4.05;;;;;;;;;;5057394;28;20033;-58
2021/03/29 12:08:29;;;;;;;13.95;4.03;;;;;;;;;;5057198;28;20093;-58
2021/03/29 12:13:48;;;;;;;13.00;4.32;;;;;;;;;;5056774;28;20036;-59
2021/03/29 12:16:19;;;;;;;13.98;3.75;;;;;;;;;;5064662;28;20090;-59
2021/03/29 12:18:50;;;;;;;12.07;3.80;;;;;;;;;;5062366;28;20038;-59
2021/03/29 12:21:29;;;;;;;8.88;2.85;;;;;;;;;;5040152;28;21363;-58
2021/03/29 12:23:58;;;;;;;11.52;3.65;;;;;;;;;;5055246;28;20032;-59
2021/03/29 12:26:26;;;;;;;11.80;2.53;;;;;;;;;;5063458;28;20050;-60
2021/03/29 12:28:54;;;;;;;11.07;3.22;;;;;;;;;;5055624;28;20085;-59
2021/03/29 12:31:20;;;;;;;14.23;2.90;;;;;;;;;;5055732;28;20036;-59
2021/03/29 12:33:47;;;;;;;15.38;3.30;;;;;;;;;;5060987;28;20154;-59
2021/03/29 12:36:15;;;;;;;6.75;3.15;;;;;;;;;;5056310;28;20028;-60
2021/03/29 12:38:54;;;;;;;15.68;3.92;;;;;;;;;;5071640;28;20167;-60
2021/03/29 12:41:25;;;;;;;11.98;3.85;;;;;;;;;;5056334;28;20039;-59
2021/03/29 12:43:57;;;;;;;11.90;2.97;;;;;;;;;;5054027;28;20440;-59
2021/03/29 12:46:23;;;;;;;16.20;4.10;;;;;;;;;;5053872;28;20024;-60
2021/03/29 12:48:50;;;;;;;12.35;3.20;;;;;;;;;;5054490;28;21013;-60
2021/03/29 12:51:16;;;;;;;11.55;3.03;;;;;;;;;;5055654;28;20029;-58
2021/03/29 12:53:44;;;;;;;11.55;2.85;;;;;;;;;;5041686;28;20038;-58
2021/03/29 12:56:10;;;;;;;9.00;2.58;;;;;;;;;;5056205;28;20640;-60
2021/03/29 12:58:40;;;;;;;11.38;2.92;;;;;;;;;;5055058;28;20032;-60
2021/03/29 13:01:07;;;;;;;8.85;2.80;;;;;;;;;;5043868;28;20077;-60
2021/03/29 13:03:44;;;;;;;7.28;2.92;;;;;;;;;;5042303;28;20046;-59
2021/03/29 13:06:27;;;;;;;7.95;2.10;;;;;;;;;;5058679;28;20090;-59
2021/03/29 13:09:00;;;;;;;10.43;2.90;;;;;;;;;;5055982;28;20035;-60
2021/03/29 13:11:30;;;;;;;15.15;3.05;;;;;;;;;;5058278;28;20096;-60
2021/03/29 13:13:57;;;;;;;8.52;2.50;;;;;;;;;;5057863;28;20032;-59
2021/03/29 13:16:38;;;;;;;13.32;2.63;;;;;;;;;;5058003;28;20139;-59
2021/03/29 13:19:03;;;;;;;10.52;2.78;;;;;;;;;;5061578;28;20033;-58
2021/03/29 13:21:31;;;;;;;9.15;2.83;;;;;;;;;;5075526;28;20112;-59
2021/03/29 13:23:57;;;;;;;9.45;2.30;;;;;;;;;;5061468;28;21270;-59
2021/03/29 13:26:27;;;;;;;10.27;2.58;;;;;;;;;;5059732;28;20028;-61
2021/03/29 13:28:52;;;;;;;9.15;2.67;;;;;;;;;;5043838;28;20028;-59
2021/03/29 13:31:19;;;;;;;9.82;2.63;;;;;;;;;;5062531;28;20033;-60
2021/03/29 13:33:45;;;;;;;11.75;2.47;;;;;;;;;;5063186;28;22012;-60
2021/03/29 13:36:13;;;;;;;10.75;2.92;;;;;;;;;;5060007;28;20054;-59
2021/03/29 13:38:41;;;;;;;9.65;3.08;;;;;;;;;;5060128;28;20121;-59
2021/03/29 13:41:10;;;;;;;13.50;3.10;;;;;;;;;;5059247;28;20032;-59
2021/03/29 13:43:38;;;;;;;13.07;3.10;;;;;;;;;;5061716;28;20845;-58
2021/03/29 13:46:07;;;;;;;18.52;3.08;;;;;;;;;;5061368;28;20142;-59
2021/03/29 13:48:38;;;;;;;10.70;3.13;;;;;;;;;;5058532;28;20035;-61
2021/03/29 13:51:10;;;;;;;13.95;2.35;;;;;;;;;;5048359;28;20070;-59
2021/03/29 13:53:43;;;;;;;18.65;2.80;;;;;;;;;;5061372;28;20027;-58
2021/03/29 13:56:09;;;;;;;12.25;3.75;;;;;;;;;;5047242;28;20028;-59
2021/03/29 13:58:34;;;;;;;11.50;2.83;;;;;;;;;;5042891;28;20444;-60
2021/03/29 14:01:02;;;;;;;12.38;2.92;;;;;;;;;;5056983;28;20028;-59
2021/03/29 14:03:30;;;;;;;11.57;2.92;;;;;;;;;;5061267;28;20051;-58
2021/03/29 14:05:56;;;;;;;8.13;2.50;;;;;;;;;;5044114;28;20028;-58
2021/03/29 14:08:27;;;;;;;9.13;3.05;;;;;;;;;;5049400;28;20036;-58
2021/03/29 14:10:58;;;;;;;12.98;2.78;;;;;;;;;;5043468;28;20035;-59
2021/03/29 14:13:23;;;;;;;21.33;3.67;;;;;;;;;;5041635;28;20225;-58
2021/03/29 14:15:50;;;;;;;9.80;3.38;;;;;;;;;;5056286;28;20043;-58
2021/03/29 14:18:18;;;;;;;15.75;2.97;;;;;;;;;;5056413;28;20040;-59
2021/03/29 14:20:46;;;;;;;12.43;2.90;;;;;;;;;;5055316;28;20465;-58
2021/03/29 14:23:14;;;;;;;9.93;2.92;;;;;;;;;;5056781;28;20032;-58
2021/03/29 14:25:44;;;;;;;12.55;2.97;;;;;;;;;;5062815;28;20020;-59
2021/03/29 14:28:11;;;;;;;10.35;3.17;;;;;;;;;;5041505;28;20033;-59
2021/03/29 14:30:40;;;;;;;11.27;3.13;;;;;;;;;;5057111;28;20028;-57
2021/03/29 14:33:06;;;;;;;14.60;3.20;;;;;;;;;;5061627;28;20043;-61
2021/03/29 14:38:27;;;;;;;10.80;3.17;;;;;;;;;;5057700;28;20066;-59
2021/03/29 14:45:54;;;;;;;13.07;3.15;;;;;;;;;;5059303;28;20040;-60
2021/03/29 14:48:22;;;;;;;11.50;2.92;;;;;;;;;;5057737;28;20100;-60
2021/03/29 14:50:48;;;;;;;12.45;3.55;;;;;;;;;;5057474;28;20089;-60
2021/03/29 14:53:16;;;;;;;10.52;2.63;;;;;;;;;;5057606;28;20036;-58
2021/03/29 14:55:42;;;;;;;11.82;3.47;;;;;;;;;;5056515;28;20047;-59
2021/03/29 14:58:07;;;;;;;11.32;3.22;;;;;;;;;;5055733;28;20063;-58
2021/03/29 15:00:35;;;;;;;10.75;3.28;;;;;;;;;;5041891;28;20968;-59
2021/03/29 15:03:12;;;;;;;17.80;4.15;;;;;;;;;;5056300;28;20026;-59